ePrivacy and GPDR Cookie Consent by Cookie Consent
EmailTwitter


Observations de surface / Québec / CYUL (71627)

Régions: Québec | Canada | États-Unis | Europe | France | UK | Ailleurs
Station
Affichage
Infos & localisation pour CYUL (71627) | Aide pour décoder les METARs

Observations prises le 2021-12-07 à 02H00 UTC à MONTREAL INTL A, QB (CYUL)

Etat du ciel: partiellement nuageux.

Température: 3.0 Celsius

Point de rosée: -2.0 Celsius

Humidité relative: 70%

Facteur vent -4.

Facteur vent (rafales) -5.

Vents: Sud-ouest à 43 km/h ou 23 noeuds.

Rafale du vent: 59 km/h ou 32 noeuds.

Pression au niveau moyen de la mer: 99.93 kilopascals.

Calage altimétrique: 99.90 kilopascals ou 29.50 pouces de mercure.

Visibilité horizontale: 15.00 milles terrestres ou 24.00 kilomètres.

Hauteur du plafond: 4877 mètres ( 16000 pieds ).

Observation METAR:

CYUL 070200Z 24023G32KT 15SM FEW120 BKN160 03/M02 A2950 RMK AC1AS7 AC TR SLP993=